createdAt,value
2023-02-22T00:01:35.364Z,18.60
2023-02-22T00:04:02.955Z,22.23
2023-02-22T00:06:30.993Z,18.20
2023-02-22T00:08:58.310Z,17.97
2023-02-22T00:11:24.994Z,18.67
2023-02-22T00:13:51.459Z,22.57
2023-02-22T00:16:19.139Z,20.50
2023-02-22T00:18:45.550Z,19.33
2023-02-22T00:21:12.914Z,21.07
2023-02-22T00:23:46.551Z,19.57
2023-02-22T00:26:19.819Z,18.60
2023-02-22T00:28:50.024Z,16.23
2023-02-22T00:31:16.726Z,12.77
2023-02-22T00:33:43.391Z,17.40
2023-02-22T00:36:10.745Z,19.57
2023-02-22T00:38:37.380Z,19.27
2023-02-22T00:41:03.696Z,22.23
2023-02-22T00:43:29.978Z,12.00
2023-02-22T00:45:57.194Z,18.00
2023-02-22T00:48:23.490Z,16.43
2023-02-22T00:50:50.468Z,19.60
2023-02-22T00:53:16.720Z,13.63
2023-02-22T00:55:42.941Z,22.17
2023-02-22T00:58:09.161Z,17.70
2023-02-22T01:00:37.670Z,15.87
2023-02-22T01:03:04.992Z,18.40
2023-02-22T01:05:31.947Z,15.43
2023-02-22T01:08:00.101Z,17.50
2023-02-22T01:10:27.378Z,15.33
2023-02-22T01:12:54.489Z,15.60
2023-02-22T01:15:21.795Z,16.33
2023-02-22T01:17:48.729Z,18.93
2023-02-22T01:20:15.734Z,20.27
2023-02-22T01:22:43.162Z,26.40
2023-02-22T01:25:10.571Z,16.67
2023-02-22T01:27:38.353Z,14.17
2023-02-22T01:30:08.542Z,20.03
2023-02-22T01:32:35.846Z,19.93
2023-02-22T01:35:04.936Z,13.77
2023-02-22T01:37:32.333Z,19.77
2023-02-22T01:39:58.719Z,17.20
2023-02-22T01:42:25.205Z,17.47
2023-02-22T01:45:10.049Z,19.50
2023-02-22T01:47:36.259Z,17.37
2023-02-22T01:50:02.500Z,17.73
2023-02-22T01:52:28.716Z,15.93
2023-02-22T01:54:57.387Z,14.63
2023-02-22T01:57:34.654Z,20.03
2023-02-22T02:00:02.572Z,19.50
2023-02-22T02:02:29.022Z,18.03
2023-02-22T02:04:56.269Z,20.47
2023-02-22T02:07:22.980Z,17.17
2023-02-22T02:09:56.669Z,18.30
2023-02-22T02:12:23.378Z,16.53
2023-02-22T02:14:49.899Z,23.00
2023-02-22T02:17:17.609Z,17.20
2023-02-22T02:20:04.388Z,19.07
2023-02-22T02:22:38.717Z,18.03
2023-02-22T02:25:11.034Z,12.63
2023-02-22T02:27:37.227Z,20.80
2023-02-22T02:30:03.440Z,18.07
2023-02-22T02:32:36.603Z,16.20
2023-02-22T02:35:21.740Z,19.67
2023-02-22T02:37:57.509Z,16.47
2023-02-22T02:40:47.323Z,15.83
2023-02-22T02:43:16.963Z,15.27
2023-02-22T02:45:49.585Z,21.20
2023-02-22T02:48:17.257Z,17.93
2023-02-22T02:50:46.809Z,14.77
2023-02-22T02:53:13.887Z,19.87
2023-02-22T02:55:40.581Z,21.83
2023-02-22T02:58:07.567Z,16.83
2023-02-22T03:00:39.209Z,18.13
2023-02-22T03:03:10.301Z,15.77
2023-02-22T03:06:03.009Z,17.13
2023-02-22T03:08:43.546Z,15.33
2023-02-22T03:11:15.815Z,23.73
2023-02-22T03:13:51.903Z,14.33
2023-02-22T03:16:33.538Z,18.63
2023-02-22T03:19:06.295Z,15.63
2023-02-22T03:21:47.889Z,17.47
2023-02-22T03:24:20.862Z,24.73
2023-02-22T03:26:54.969Z,19.40
2023-02-22T03:29:23.737Z,24.53
2023-02-22T03:31:53.374Z,27.53
2023-02-22T03:34:22.540Z,17.47
2023-02-22T03:36:52.525Z,20.30
2023-02-22T03:39:20.280Z,23.97
2023-02-22T03:41:48.561Z,20.77
2023-02-22T03:44:18.415Z,16.13
2023-02-22T03:46:46.767Z,22.57
2023-02-22T03:49:31.831Z,20.87
2023-02-22T03:51:58.583Z,20.80
2023-02-22T03:54:24.826Z,19.93
2023-02-22T03:56:58.795Z,22.63
2023-02-22T03:59:27.589Z,14.70
2023-02-22T04:01:54.793Z,19.83
2023-02-22T04:04:21.379Z,18.33
2023-02-22T04:06:47.989Z,21.93
2023-02-22T04:09:14.597Z,16.27
2023-02-22T04:11:40.817Z,14.67
2023-02-22T04:14:07.044Z,21.00
2023-02-22T04:16:33.252Z,28.93
2023-02-22T04:18:59.485Z,20.47
2023-02-22T04:21:25.740Z,19.70
2023-02-22T04:23:52.018Z,18.20
2023-02-22T04:26:18.436Z,22.17
2023-02-22T04:28:44.653Z,19.70
2023-02-22T04:31:10.981Z,18.90
2023-02-22T04:33:37.246Z,17.33
2023-02-22T04:36:03.641Z,20.87
2023-02-22T04:38:29.929Z,17.03
2023-02-22T04:40:56.237Z,26.60
2023-02-22T04:43:22.461Z,18.43
2023-02-22T04:45:48.968Z,17.03
2023-02-22T04:48:15.210Z,20.87
2023-02-22T04:50:41.458Z,15.70
2023-02-22T04:53:07.674Z,21.40
2023-02-22T04:55:34.224Z,23.47
2023-02-22T04:58:00.488Z,25.67
2023-02-22T05:00:27.043Z,19.60
2023-02-22T05:02:53.381Z,12.57
2023-02-22T05:05:21.467Z,21.60
2023-02-22T05:07:48.299Z,19.63
2023-02-22T05:10:14.802Z,21.47
2023-02-22T05:12:41.035Z,16.87
2023-02-22T05:15:08.444Z,18.70
2023-02-22T05:17:35.457Z,16.93
2023-02-22T05:20:03.023Z,18.40
2023-02-22T05:22:29.406Z,26.33
2023-02-22T05:24:56.861Z,27.30
2023-02-22T05:27:23.148Z,20.70
2023-02-22T05:29:49.392Z,17.27
2023-02-22T05:32:15.634Z,19.10
2023-02-22T05:34:41.920Z,23.10
2023-02-22T05:37:08.253Z,24.53
2023-02-22T05:39:34.520Z,19.93
2023-02-22T05:42:00.847Z,19.97
2023-02-22T05:44:27.945Z,20.23
2023-02-22T05:46:54.165Z,22.00
2023-02-22T05:49:20.414Z,22.37
2023-02-22T05:51:46.630Z,21.20
2023-02-22T05:54:12.886Z,23.93
2023-02-22T05:56:39.141Z,24.97
2023-02-22T05:59:05.481Z,16.07
2023-02-22T06:01:31.736Z,21.40
2023-02-22T06:03:57.965Z,18.13
2023-02-22T06:06:24.233Z,23.47
2023-02-22T06:08:50.524Z,18.70
2023-02-22T06:11:17.024Z,21.20
2023-02-22T06:13:48.717Z,19.83
2023-02-22T06:16:14.984Z,23.50
2023-02-22T06:18:41.223Z,24.57
2023-02-22T06:21:08.270Z,25.03
2023-02-22T06:23:34.493Z,24.10
2023-02-22T06:26:00.722Z,22.43
2023-02-22T06:28:26.936Z,25.03
2023-02-22T06:30:53.276Z,27.90
2023-02-22T06:33:19.517Z,23.73
2023-02-22T06:35:46.762Z,29.50
2023-02-22T06:38:20.321Z,23.60
2023-02-22T06:40:46.589Z,22.60
2023-02-22T06:43:12.825Z,22.03
2023-02-22T06:45:39.074Z,26.33
2023-02-22T06:48:05.427Z,22.70
2023-02-22T06:50:34.243Z,26.43
2023-02-22T06:53:01.767Z,24.13
2023-02-22T06:55:28.904Z,29.43
2023-02-22T06:57:55.141Z,24.33
2023-02-22T07:00:22.608Z,24.27
2023-02-22T07:02:48.996Z,26.37
2023-02-22T07:05:17.071Z,19.27
2023-02-22T07:07:43.425Z,31.43
2023-02-22T07:10:16.591Z,34.57
2023-02-22T07:12:42.825Z,24.43
2023-02-22T07:15:09.213Z,25.63
2023-02-22T07:17:35.441Z,26.27
2023-02-22T07:20:01.666Z,25.23
2023-02-22T07:22:27.949Z,28.10
2023-02-22T07:24:55.308Z,21.03
2023-02-22T07:27:22.577Z,26.30
2023-02-22T07:29:49.758Z,25.30
2023-02-22T07:32:16.048Z,23.60
2023-02-22T07:34:43.032Z,21.40
2023-02-22T07:37:09.361Z,26.87
2023-02-22T07:39:37.411Z,28.50
2023-02-22T07:42:03.938Z,24.03
2023-02-22T07:44:30.225Z,27.23
2023-02-22T07:46:56.471Z,24.27
2023-02-22T07:49:22.799Z,28.67
2023-02-22T07:51:49.069Z,22.77
2023-02-22T07:54:15.293Z,20.73
2023-02-22T07:56:45.128Z,17.23
2023-02-22T07:59:11.356Z,22.67
2023-02-22T08:01:37.640Z,26.07
2023-02-22T08:04:03.975Z,33.80
2023-02-22T08:06:31.793Z,29.20
2023-02-22T08:08:58.234Z,27.33
2023-02-22T08:11:24.750Z,22.23
2023-02-22T08:13:51.002Z,24.40
2023-02-22T08:16:17.255Z,31.70
2023-02-22T08:18:43.556Z,25.80
2023-02-22T08:21:09.838Z,22.40
2023-02-22T08:23:36.098Z,29.17
2023-02-22T08:26:06.821Z,29.60
2023-02-22T08:28:33.194Z,29.60
2023-02-22T08:30:59.575Z,19.60
2023-02-22T08:33:25.953Z,28.80
2023-02-22T08:35:52.560Z,23.73
2023-02-22T08:38:24.746Z,23.17
2023-02-22T08:40:51.305Z,28.77
2023-02-22T08:43:18.161Z,31.23
2023-02-22T08:45:44.634Z,31.20
2023-02-22T08:48:11.049Z,30.93
2023-02-22T08:50:38.111Z,24.63
2023-02-22T08:53:04.973Z,22.43
2023-02-22T08:55:35.710Z,28.07
2023-02-22T08:58:03.115Z,22.00
2023-02-22T09:00:33.013Z,28.53
2023-02-22T09:03:00.407Z,28.00
2023-02-22T09:05:26.986Z,28.77
2023-02-22T09:07:53.403Z,22.80
2023-02-22T09:10:24.439Z,26.47
2023-02-22T09:12:57.120Z,28.53
2023-02-22T09:15:24.240Z,22.77
2023-02-22T09:17:50.888Z,28.70
2023-02-22T09:20:17.966Z,27.13
2023-02-22T09:22:47.535Z,24.47
2023-02-22T09:25:17.095Z,23.03
2023-02-22T09:27:44.049Z,23.50
2023-02-22T09:30:17.801Z,26.40
2023-02-22T09:32:44.129Z,20.67
2023-02-22T09:35:10.617Z,23.87
2023-02-22T09:37:36.943Z,21.70
2023-02-22T09:40:03.447Z,24.30
2023-02-22T09:42:34.192Z,20.40
2023-02-22T09:45:05.956Z,26.17
2023-02-22T09:47:40.093Z,25.80
2023-02-22T09:50:22.518Z,24.53
2023-02-22T09:53:00.979Z,28.27
2023-02-22T09:55:37.888Z,22.13
2023-02-22T09:58:07.308Z,27.70
2023-02-22T10:00:36.493Z,17.70
2023-02-22T10:03:21.634Z,19.93
2023-02-22T10:05:59.140Z,21.23
2023-02-22T10:08:31.159Z,20.43
2023-02-22T10:11:04.224Z,20.27
2023-02-22T10:13:30.433Z,25.13
2023-02-22T10:15:58.272Z,13.43
2023-02-22T10:18:44.015Z,26.27
2023-02-22T10:21:30.782Z,25.47
2023-02-22T10:24:14.162Z,23.33
2023-02-22T10:26:44.526Z,22.77
2023-02-22T10:29:27.187Z,25.27
2023-02-22T10:31:58.310Z,16.13
2023-02-22T10:34:26.922Z,21.23
2023-02-22T10:37:17.535Z,25.83
2023-02-22T10:39:44.386Z,22.93
2023-02-22T10:42:10.624Z,16.60
2023-02-22T10:44:37.815Z,16.03
2023-02-22T10:47:06.523Z,23.37
2023-02-22T10:49:43.589Z,18.97
2023-02-22T10:52:14.344Z,17.97
2023-02-22T10:54:46.111Z,24.13
2023-02-22T10:57:13.492Z,21.53
2023-02-22T10:59:42.026Z,25.17
2023-02-22T11:02:23.380Z,20.47
2023-02-22T11:04:50.940Z,19.97
2023-02-22T11:07:27.678Z,24.13
2023-02-22T11:09:59.192Z,25.13
2023-02-22T11:12:27.645Z,21.50
2023-02-22T11:14:54.569Z,21.37
2023-02-22T11:17:27.926Z,18.63
2023-02-22T11:19:54.238Z,19.67
2023-02-22T11:22:22.344Z,15.50
2023-02-22T11:24:59.807Z,22.80
2023-02-22T11:27:28.817Z,19.87
2023-02-22T11:29:57.519Z,17.63
2023-02-22T11:32:24.590Z,16.23
2023-02-22T11:35:03.522Z,22.70
2023-02-22T11:37:36.450Z,13.77
2023-02-22T11:40:13.264Z,19.17
2023-02-22T11:42:39.540Z,21.33
2023-02-22T11:45:12.303Z,17.13
2023-02-22T11:47:49.279Z,22.83
2023-02-22T11:50:27.760Z,21.47
2023-02-22T11:53:01.612Z,13.43
2023-02-22T11:55:42.872Z,24.07
2023-02-22T11:58:29.908Z,15.23
2023-02-22T12:01:07.092Z,21.80
2023-02-22T12:03:44.999Z,19.77
2023-02-22T12:06:19.413Z,18.43
2023-02-22T12:08:55.567Z,18.00
2023-02-22T12:11:25.857Z,19.30
2023-02-22T12:13:58.763Z,12.40
2023-02-22T12:16:46.912Z,18.63
2023-02-22T12:19:31.946Z,20.67
2023-02-22T12:22:02.348Z,19.83
2023-02-22T12:24:36.179Z,17.53
2023-02-22T12:27:11.464Z,17.57
2023-02-22T12:29:40.448Z,17.33
2023-02-22T12:32:06.679Z,18.27
2023-02-22T12:34:36.017Z,18.77
2023-02-22T12:37:14.794Z,16.13
2023-02-22T12:40:00.716Z,13.03
2023-02-22T12:42:32.984Z,16.50
2023-02-22T12:45:16.739Z,13.30
2023-02-22T12:47:45.944Z,18.23
2023-02-22T12:50:17.027Z,13.93
2023-02-22T12:52:53.019Z,17.47
2023-02-22T12:55:28.952Z,15.43
2023-02-22T12:57:59.501Z,16.07
2023-02-22T13:00:36.649Z,16.63
2023-02-22T13:03:15.297Z,19.20
2023-02-22T13:05:48.333Z,14.23
2023-02-22T13:08:30.079Z,17.40
2023-02-22T13:10:56.281Z,13.33
2023-02-22T13:13:42.818Z,10.90
2023-02-22T13:16:31.453Z,16.77
2023-02-22T13:19:01.755Z,11.77
2023-02-22T13:21:37.667Z,13.07
2023-02-22T13:24:05.306Z,18.87
2023-02-22T13:26:38.352Z,14.63
2023-02-22T13:29:09.865Z,18.17
2023-02-22T13:31:45.846Z,13.27
2023-02-22T13:34:31.075Z,13.37
2023-02-22T13:37:03.562Z,15.40
2023-02-22T13:39:56.381Z,19.80
2023-02-22T13:42:31.827Z,12.50
2023-02-22T13:45:09.793Z,18.67
2023-02-22T13:47:54.991Z,17.40
2023-02-22T13:50:30.492Z,18.43
2023-02-22T13:52:57.347Z,18.07
2023-02-22T13:55:27.384Z,15.00
2023-02-22T13:58:00.741Z,13.90
2023-02-22T14:00:42.353Z,14.50
2023-02-22T14:03:14.791Z,16.13
2023-02-22T14:05:47.258Z,13.53
2023-02-22T14:08:13.526Z,13.60
2023-02-22T14:10:48.745Z,17.17
2023-02-22T14:13:17.074Z,14.80
2023-02-22T14:16:03.640Z,13.83
2023-02-22T14:18:37.984Z,14.73
2023-02-22T14:21:05.890Z,15.20
2023-02-22T14:23:40.351Z,14.07
2023-02-22T14:26:15.680Z,14.77
2023-02-22T14:28:57.050Z,18.13
2023-02-22T14:31:35.407Z,14.93
2023-02-22T14:34:04.967Z,14.70
2023-02-22T14:36:46.512Z,11.93
2023-02-22T14:39:22.055Z,18.17
2023-02-22T14:41:54.204Z,11.60
2023-02-22T14:44:23.791Z,16.97
2023-02-22T14:46:51.485Z,16.30
2023-02-22T14:49:21.070Z,13.83
2023-02-22T14:52:08.040Z,20.97
2023-02-22T14:54:39.792Z,16.70
2023-02-22T14:57:14.961Z,14.40
2023-02-22T14:59:48.000Z,18.30
2023-02-22T15:02:14.962Z,17.77
2023-02-22T15:04:43.893Z,9.20
2023-02-22T15:07:27.315Z,14.00
2023-02-22T15:10:16.372Z,13.83
2023-02-22T15:12:42.843Z,19.87
2023-02-22T15:15:12.764Z,12.97
2023-02-22T15:17:39.450Z,9.43
2023-02-22T15:20:10.035Z,13.43
2023-02-22T15:22:36.668Z,17.77
2023-02-22T15:25:07.618Z,16.30
2023-02-22T15:27:36.975Z,12.57
2023-02-22T15:30:32.499Z,15.77
2023-02-22T15:33:09.809Z,19.37
2023-02-22T15:35:36.607Z,14.30
2023-02-22T15:38:02.861Z,14.50
2023-02-22T15:40:33.165Z,14.60
2023-02-22T15:43:02.273Z,13.77
2023-02-22T15:45:28.895Z,14.07
2023-02-22T15:47:55.860Z,14.83
2023-02-22T15:50:25.763Z,13.37
2023-02-22T15:52:58.287Z,17.37
2023-02-22T15:55:32.844Z,17.17
2023-02-22T15:58:10.837Z,16.20
2023-02-22T16:00:38.475Z,12.87
2023-02-22T16:03:05.659Z,21.33
2023-02-22T16:05:40.398Z,14.50
2023-02-22T16:08:14.051Z,13.07
2023-02-22T16:10:43.099Z,17.17
2023-02-22T16:13:31.084Z,15.57
2023-02-22T16:16:01.851Z,11.00
2023-02-22T16:18:33.906Z,17.20
2023-02-22T16:21:12.972Z,19.00
2023-02-22T16:23:46.310Z,19.57
2023-02-22T16:26:24.536Z,17.47
2023-02-22T16:29:01.579Z,19.77
2023-02-22T16:31:29.469Z,13.67
2023-02-22T16:33:55.880Z,12.70
2023-02-22T16:36:24.303Z,16.10
2023-02-22T16:38:51.707Z,12.67
2023-02-22T16:41:19.850Z,14.60
2023-02-22T16:43:51.118Z,16.50
2023-02-22T16:46:19.619Z,17.47
2023-02-22T16:48:46.731Z,12.80
2023-02-22T16:51:24.444Z,23.33
2023-02-22T16:53:52.243Z,13.60
2023-02-22T16:56:20.193Z,17.77
2023-02-22T16:58:49.651Z,20.33
2023-02-22T17:01:16.792Z,13.83
2023-02-22T17:03:43.099Z,15.07
2023-02-22T17:06:12.060Z,14.97
2023-02-22T17:08:38.979Z,15.63
2023-02-22T17:11:05.753Z,15.63
2023-02-22T17:13:32.296Z,15.27
2023-02-22T17:15:58.536Z,15.73
2023-02-22T17:18:28.337Z,21.10
2023-02-22T17:20:55.063Z,18.00
2023-02-22T17:23:21.837Z,14.90
2023-02-22T17:25:53.489Z,16.23
2023-02-22T17:28:20.453Z,14.83
2023-02-22T17:30:48.884Z,19.23
2023-02-22T17:33:16.682Z,14.27
2023-02-22T17:35:44.035Z,17.47
2023-02-22T17:38:10.307Z,15.47
2023-02-22T17:40:37.714Z,19.03
2023-02-22T17:43:04.822Z,15.27
2023-02-22T17:45:31.120Z,18.10
2023-02-22T17:47:59.367Z,17.90
2023-02-22T17:50:26.644Z,18.80
2023-02-22T17:52:52.970Z,18.57
2023-02-22T17:55:19.879Z,18.47
2023-02-22T17:57:46.503Z,18.17
2023-02-22T18:00:15.645Z,13.50
2023-02-22T18:02:42.933Z,16.83
2023-02-22T18:05:10.586Z,18.10
2023-02-22T18:07:37.237Z,12.97
2023-02-22T18:10:05.367Z,23.60
2023-02-22T18:12:32.247Z,17.67
2023-02-22T18:14:59.298Z,14.00
2023-02-22T18:17:25.575Z,13.60
2023-02-22T18:19:51.889Z,13.83
2023-02-22T18:22:18.101Z,12.40
2023-02-22T18:24:44.323Z,13.10
2023-02-22T18:27:11.839Z,16.53
2023-02-22T18:29:38.086Z,12.47
2023-02-22T18:32:04.462Z,13.80
2023-02-22T18:34:30.727Z,14.13
2023-02-22T18:36:57.030Z,12.20
2023-02-22T18:39:23.277Z,12.60
2023-02-22T18:41:49.665Z,15.60
2023-02-22T18:44:16.430Z,10.83
2023-02-22T18:46:43.585Z,12.27
2023-02-22T18:49:11.557Z,11.37
2023-02-22T18:51:39.817Z,12.63
2023-02-22T18:54:06.079Z,13.17
2023-02-22T18:56:33.883Z,12.33
2023-02-22T18:59:01.507Z,16.43
2023-02-22T19:01:29.300Z,13.93
2023-02-22T19:03:55.687Z,11.43
2023-02-22T19:06:22.564Z,14.93
2023-02-22T19:08:50.576Z,9.90
2023-02-22T19:11:19.174Z,14.60
2023-02-22T19:13:46.705Z,12.40
2023-02-22T19:16:14.160Z,14.00
2023-02-22T19:18:40.424Z,14.87
2023-02-22T19:21:10.261Z,19.60
2023-02-22T19:23:38.125Z,16.83
2023-02-22T19:26:05.028Z,12.10
2023-02-22T19:28:34.366Z,18.13
2023-02-22T19:31:31.561Z,13.53
2023-02-22T19:34:02.020Z,9.90
2023-02-22T19:36:28.300Z,11.07
2023-02-22T19:38:54.592Z,9.53
2023-02-22T19:41:21.976Z,13.67
2023-02-22T19:43:49.053Z,15.50
2023-02-22T19:46:17.747Z,14.33
2023-02-22T19:48:44.654Z,15.07
2023-02-22T19:51:11.983Z,13.90
2023-02-22T19:53:39.140Z,16.73
2023-02-22T19:56:31.236Z,15.70
2023-02-22T19:58:58.767Z,16.87
2023-02-22T20:01:32.964Z,15.67
2023-02-22T20:04:00.815Z,14.07
2023-02-22T20:06:28.786Z,8.17
2023-02-22T20:08:55.734Z,10.73
2023-02-22T20:11:22.995Z,12.60
2023-02-22T20:13:49.213Z,11.73
2023-02-22T20:16:15.703Z,13.00
2023-02-22T20:18:43.089Z,14.87
2023-02-22T20:21:12.382Z,12.57
2023-02-22T20:23:44.229Z,11.33
2023-02-22T20:26:15.404Z,16.27
2023-02-22T20:28:41.709Z,18.70
2023-02-22T20:31:13.656Z,12.30
2023-02-22T20:33:45.579Z,14.67
2023-02-22T20:36:13.187Z,12.70
2023-02-22T20:38:39.650Z,14.17
2023-02-22T20:41:07.400Z,12.40
2023-02-22T20:43:34.138Z,8.93
2023-02-22T20:46:01.158Z,12.60
2023-02-22T20:48:27.589Z,13.33
2023-02-22T20:50:53.818Z,14.93
2023-02-22T20:53:20.040Z,10.47
2023-02-22T20:55:50.006Z,13.70
2023-02-22T20:58:19.823Z,12.10
2023-02-22T21:00:46.178Z,15.47
2023-02-22T21:03:12.559Z,12.83
2023-02-22T21:05:43.701Z,13.70
2023-02-22T21:08:10.144Z,12.73
2023-02-22T21:10:43.097Z,13.80
2023-02-22T21:13:11.438Z,13.17
2023-02-22T21:15:38.053Z,13.97
2023-02-22T21:18:04.793Z,13.63
2023-02-22T21:20:31.279Z,17.00
2023-02-22T21:22:57.493Z,15.80
2023-02-22T21:25:24.840Z,14.70
2023-02-22T21:27:52.332Z,12.00
2023-02-22T21:30:19.161Z,18.60
2023-02-22T21:32:49.432Z,24.77
2023-02-22T21:35:15.786Z,14.53
2023-02-22T21:37:43.646Z,17.67
2023-02-22T21:40:19.037Z,20.20
2023-02-22T21:42:48.949Z,20.60
2023-02-22T21:45:15.724Z,23.20
2023-02-22T21:47:42.038Z,16.73
2023-02-22T21:50:10.265Z,20.70
2023-02-22T21:52:37.500Z,19.17
2023-02-22T21:55:03.946Z,20.47
2023-02-22T21:57:30.160Z,17.93
2023-02-22T21:59:56.399Z,19.30
2023-02-22T22:02:22.923Z,19.50
2023-02-22T22:04:50.237Z,17.77
2023-02-22T22:07:18.255Z,20.13
2023-02-22T22:09:56.355Z,23.63
2023-02-22T22:12:26.033Z,17.80
2023-02-22T22:14:55.249Z,22.00
2023-02-22T22:17:21.821Z,20.03
2023-02-22T22:19:48.895Z,21.53
2023-02-22T22:22:15.282Z,22.73
2023-02-22T22:24:45.544Z,22.90
2023-02-22T22:27:12.894Z,21.43
2023-02-22T22:29:39.225Z,23.87
2023-02-22T22:32:06.528Z,22.23
2023-02-22T22:34:34.573Z,24.67
2023-02-22T22:37:00.862Z,25.87
2023-02-22T22:39:27.243Z,24.23
2023-02-22T22:41:53.586Z,22.43
2023-02-22T22:44:22.288Z,25.13
2023-02-22T22:46:49.697Z,28.23
2023-02-22T22:49:16.292Z,24.47
2023-02-22T22:51:42.658Z,21.40
2023-02-22T22:54:09.651Z,23.63
2023-02-22T22:56:37.805Z,20.80
2023-02-22T22:59:09.551Z,26.50
2023-02-22T23:01:39.391Z,31.00
2023-02-22T23:04:10.274Z,26.33
2023-02-22T23:06:38.634Z,22.50
2023-02-22T23:09:11.399Z,26.30
2023-02-22T23:11:44.210Z,23.77
2023-02-22T23:14:12.187Z,22.80
2023-02-22T23:16:39.805Z,28.57
2023-02-22T23:19:09.399Z,28.67
2023-02-22T23:21:36.000Z,28.80
2023-02-22T23:24:05.922Z,26.17
2023-02-22T23:26:32.795Z,26.80
2023-02-22T23:28:59.255Z,23.43
2023-02-22T23:31:25.579Z,28.17
2023-02-22T23:33:51.883Z,23.20
2023-02-22T23:36:18.818Z,25.43
2023-02-22T23:38:45.573Z,29.60
2023-02-22T23:41:12.635Z,29.77
2023-02-22T23:43:42.777Z,29.53
2023-02-22T23:46:10.813Z,23.20
2023-02-22T23:48:38.581Z,26.10
2023-02-22T23:51:11.175Z,25.37
2023-02-22T23:53:38.396Z,32.47
2023-02-22T23:56:13.073Z,30.00
2023-02-22T23:58:40.191Z,27.00
